createdAt,value
2023-01-29T00:04:19.596Z,2.90
2023-01-29T00:09:17.746Z,2.93
2023-01-29T00:14:17.141Z,2.91
2023-01-29T00:19:15.100Z,2.94
2023-01-29T00:24:13.217Z,2.97
2023-01-29T00:29:11.215Z,2.90
2023-01-29T00:34:10.532Z,2.86
2023-01-29T00:39:11.110Z,2.92
2023-01-29T00:44:26.628Z,2.93
2023-01-29T00:49:26.036Z,2.82
2023-01-29T00:54:23.992Z,2.85
2023-01-29T00:59:22.217Z,2.80
2023-01-29T01:04:20.514Z,2.81
2023-01-29T01:09:37.516Z,2.79
2023-01-29T01:14:36.260Z,2.68
2023-01-29T01:19:35.061Z,2.78
2023-01-29T01:24:34.541Z,2.42
2023-01-29T01:29:32.851Z,2.54
2023-01-29T01:34:31.175Z,2.35
2023-01-29T01:39:29.112Z,2.51
2023-01-29T01:44:46.295Z,2.54
2023-01-29T01:49:46.265Z,2.56
2023-01-29T01:54:45.086Z,2.65
2023-01-29T01:59:44.662Z,2.63
2023-01-29T02:05:04.548Z,2.59
2023-01-29T02:10:11.617Z,2.58
2023-01-29T02:15:09.905Z,2.66
2023-01-29T02:20:13.094Z,2.54
2023-01-29T02:25:26.580Z,2.74
2023-01-29T02:30:29.804Z,2.77
2023-01-29T02:35:31.994Z,2.75
2023-01-29T02:40:31.779Z,2.61
2023-01-29T02:45:34.105Z,2.70
2023-01-29T02:50:34.370Z,2.63
2023-01-29T02:55:35.603Z,2.64
2023-01-29T03:00:37.756Z,2.69
2023-01-29T03:05:43.427Z,2.56
2023-01-29T03:10:45.331Z,2.46
2023-01-29T03:15:47.513Z,2.51
2023-01-29T03:21:04.423Z,2.30
2023-01-29T03:26:20.012Z,2.09
2023-01-29T03:31:37.265Z,2.22
2023-01-29T03:36:39.916Z,2.30
2023-01-29T03:41:39.775Z,2.34
2023-01-29T03:46:42.510Z,2.38
2023-01-29T03:51:47.924Z,2.52
2023-01-29T03:56:52.569Z,2.21
2023-01-29T04:01:54.154Z,2.36
2023-01-29T04:06:54.150Z,2.24
2023-01-29T04:11:55.701Z,2.39
2023-01-29T04:16:58.566Z,2.16
2023-01-29T04:22:14.226Z,2.12
2023-01-29T04:27:21.900Z,2.16
2023-01-29T04:32:28.218Z,2.17
2023-01-29T04:37:31.485Z,2.32
2023-01-29T04:42:32.651Z,2.49
2023-01-29T04:47:36.425Z,2.41
2023-01-29T04:52:38.135Z,2.51
2023-01-29T04:57:40.849Z,2.53
2023-01-29T05:02:41.328Z,2.43
2023-01-29T05:07:40.189Z,2.42
2023-01-29T05:12:39.354Z,2.38
2023-01-29T05:17:37.551Z,2.57
2023-01-29T05:22:38.668Z,2.58
2023-01-29T05:27:54.047Z,2.71
2023-01-29T05:32:51.895Z,2.69
2023-01-29T05:37:51.141Z,2.65
2023-01-29T05:42:48.980Z,2.52
2023-01-29T05:47:47.139Z,2.52
2023-01-29T05:52:45.145Z,2.55
2023-01-29T05:57:44.373Z,2.58
2023-01-29T06:02:42.231Z,2.63
2023-01-29T06:07:45.261Z,2.34
2023-01-29T06:12:44.944Z,2.72
2023-01-29T06:17:42.806Z,2.79
2023-01-29T06:22:40.663Z,2.85
2023-01-29T06:27:38.540Z,2.67
2023-01-29T06:32:37.909Z,2.80
2023-01-29T06:37:35.805Z,3.05
2023-01-29T06:42:35.911Z,3.13
2023-01-29T06:47:33.773Z,3.18
2023-01-29T06:52:33.127Z,3.13
2023-01-29T06:57:31.166Z,3.16
2023-01-29T07:02:29.200Z,3.27
2023-01-29T07:07:27.179Z,3.49
2023-01-29T07:12:26.466Z,3.50
2023-01-29T07:17:24.331Z,3.28
2023-01-29T07:22:22.250Z,3.25
2023-01-29T07:27:20.114Z,3.73
2023-01-29T07:32:19.400Z,4.17
2023-01-29T07:37:17.342Z,4.01
2023-01-29T07:42:15.346Z,4.10
2023-01-29T07:47:13.640Z,4.39
2023-01-29T07:52:13.710Z,4.33
2023-01-29T07:57:11.708Z,4.29
2023-01-29T08:02:10.137Z,4.30
2023-01-29T08:07:09.514Z,4.60
2023-01-29T08:12:08.995Z,4.60
2023-01-29T08:17:06.897Z,4.79
2023-01-29T08:22:04.881Z,4.53
2023-01-29T08:27:02.734Z,4.54
2023-01-29T08:32:02.014Z,4.41
2023-01-29T08:36:59.849Z,4.57
2023-01-29T08:41:57.831Z,4.54
2023-01-29T08:46:55.705Z,4.55
2023-01-29T08:51:56.948Z,4.74
2023-01-29T08:56:54.798Z,4.85
2023-01-29T09:01:52.593Z,4.76
2023-01-29T09:06:50.442Z,4.45
2023-01-29T09:11:49.689Z,4.52
2023-01-29T09:16:47.540Z,4.39
2023-01-29T09:21:45.414Z,4.43
2023-01-29T09:26:43.368Z,4.52
2023-01-29T09:31:42.661Z,4.54
2023-01-29T09:36:40.530Z,4.49
2023-01-29T09:41:46.243Z,4.64
2023-01-29T09:46:47.710Z,4.75
2023-01-29T09:51:47.844Z,4.88
2023-01-29T09:56:46.545Z,5.01
2023-01-29T10:01:51.709Z,5.03
2023-01-29T10:06:56.533Z,5.17
2023-01-29T10:11:59.300Z,5.38
2023-01-29T10:17:07.652Z,5.58
2023-01-29T10:22:14.303Z,5.40
2023-01-29T10:27:14.744Z,5.40
2023-01-29T10:32:16.633Z,5.45
2023-01-29T10:37:18.611Z,5.36
2023-01-29T10:42:21.203Z,5.02
2023-01-29T10:47:32.404Z,4.94
2023-01-29T10:52:36.494Z,5.16
2023-01-29T10:57:43.433Z,5.10
2023-01-29T11:02:46.652Z,5.51
2023-01-29T11:07:44.795Z,5.15
2023-01-29T11:12:43.917Z,5.19
2023-01-29T11:18:01.647Z,5.34
2023-01-29T11:23:00.839Z,5.44
2023-01-29T11:28:00.646Z,5.37
2023-01-29T11:33:07.006Z,5.41
2023-01-29T11:38:16.451Z,5.52
2023-01-29T11:43:21.853Z,5.51
2023-01-29T11:48:20.898Z,5.02
2023-01-29T11:53:25.095Z,5.10
2023-01-29T11:58:27.331Z,4.86
2023-01-29T12:03:31.338Z,4.75
2023-01-29T12:08:34.703Z,4.97
2023-01-29T12:13:32.557Z,4.92
2023-01-29T12:18:32.299Z,5.22
2023-01-29T12:23:36.434Z,5.24
2023-01-29T12:28:43.768Z,5.24
2023-01-29T12:33:44.755Z,5.27
2023-01-29T12:38:44.899Z,5.21
2023-01-29T12:43:46.259Z,4.93
2023-01-29T12:48:45.113Z,5.04
2023-01-29T12:53:48.476Z,4.99
2023-01-29T12:58:48.608Z,5.01
2023-01-29T13:03:51.013Z,5.02
2023-01-29T13:08:53.913Z,5.06
2023-01-29T13:13:54.465Z,5.13
2023-01-29T13:18:56.007Z,5.16
2023-01-29T13:23:57.897Z,5.21
2023-01-29T13:28:56.066Z,5.17
2023-01-29T13:33:55.172Z,5.16
2023-01-29T13:38:59.665Z,5.18
2023-01-29T13:43:57.618Z,5.16
2023-01-29T13:48:58.306Z,5.07
2023-01-29T13:53:58.382Z,4.95
2023-01-29T13:58:56.987Z,4.85
2023-01-29T14:04:04.877Z,4.87
2023-01-29T14:09:04.800Z,4.96
2023-01-29T14:14:02.670Z,4.91
2023-01-29T14:19:01.886Z,4.86
2023-01-29T14:24:00.437Z,4.64
2023-01-29T14:29:25.540Z,4.68
2023-01-29T14:34:31.811Z,4.78
2023-01-29T14:39:33.131Z,4.81
2023-01-29T14:44:49.427Z,4.82
2023-01-29T14:49:52.773Z,4.77
2023-01-29T14:54:52.127Z,4.81
2023-01-29T14:59:54.261Z,4.82
2023-01-29T15:04:55.441Z,4.46
2023-01-29T15:10:07.928Z,4.48
2023-01-29T15:15:17.824Z,4.60
2023-01-29T15:20:28.633Z,4.65
2023-01-29T15:25:26.823Z,4.66
2023-01-29T15:30:29.392Z,4.50
2023-01-29T15:35:30.435Z,4.38
2023-01-29T15:40:28.472Z,4.40
2023-01-29T15:45:29.282Z,4.40
2023-01-29T15:50:27.173Z,4.48
2023-01-29T15:55:27.636Z,4.25
2023-01-29T16:00:27.379Z,4.20
2023-01-29T16:05:26.879Z,4.11
2023-01-29T16:10:28.028Z,4.09
2023-01-29T16:15:31.610Z,3.79
2023-01-29T16:20:34.431Z,3.92
2023-01-29T16:25:35.721Z,4.01
2023-01-29T16:30:33.684Z,4.01
2023-01-29T16:35:31.870Z,4.06
2023-01-29T16:40:33.326Z,4.12
2023-01-29T16:45:32.787Z,4.04
2023-01-29T16:50:40.674Z,4.13
2023-01-29T16:55:46.995Z,4.03
2023-01-29T17:00:47.393Z,3.96
2023-01-29T17:05:45.628Z,4.12
2023-01-29T17:10:48.106Z,4.15
2023-01-29T17:15:47.835Z,3.91
2023-01-29T17:20:45.776Z,4.09
2023-01-29T17:25:43.929Z,3.96
2023-01-29T17:30:41.796Z,4.00
2023-01-29T17:35:42.372Z,4.00
2023-01-29T17:40:42.248Z,3.69
2023-01-29T17:45:40.175Z,3.97
2023-01-29T17:50:39.654Z,3.88
2023-01-29T17:55:38.891Z,4.11
2023-01-29T18:00:37.350Z,4.12
2023-01-29T18:05:35.299Z,4.03
2023-01-29T18:10:33.156Z,4.06
2023-01-29T18:15:32.397Z,4.12
2023-01-29T18:20:30.382Z,3.70
2023-01-29T18:25:28.231Z,3.54
2023-01-29T18:30:26.274Z,3.79
2023-01-29T18:35:26.056Z,3.69
2023-01-29T18:40:23.939Z,3.92
2023-01-29T18:45:21.797Z,3.98
2023-01-29T18:50:19.832Z,4.06
2023-01-29T18:55:19.249Z,4.22
2023-01-29T19:00:17.612Z,4.35
2023-01-29T19:05:17.040Z,4.35
2023-01-29T19:10:16.987Z,4.24
2023-01-29T19:15:20.674Z,4.42
2023-01-29T19:20:18.731Z,4.46
2023-01-29T19:25:17.804Z,4.58
2023-01-29T19:30:17.942Z,4.48
2023-01-29T19:35:16.175Z,4.43
2023-01-29T19:40:14.881Z,4.55
2023-01-29T19:45:12.817Z,4.63
2023-01-29T19:50:12.909Z,4.59
2023-01-29T19:55:10.989Z,4.54
2023-01-29T20:00:12.262Z,4.47
2023-01-29T20:05:12.136Z,4.54
2023-01-29T20:10:17.877Z,4.61
2023-01-29T20:15:16.484Z,4.69
2023-01-29T20:20:15.049Z,4.65
2023-01-29T20:25:16.800Z,4.69
2023-01-29T20:30:14.989Z,4.71
2023-01-29T20:35:12.947Z,4.65
2023-01-29T20:40:11.537Z,4.50
2023-01-29T20:45:11.929Z,4.44
2023-01-29T20:50:10.791Z,4.42
2023-01-29T20:55:10.082Z,4.48
2023-01-29T21:00:09.043Z,4.50
2023-01-29T21:05:08.617Z,4.50
2023-01-29T21:10:06.814Z,4.42
2023-01-29T21:15:04.842Z,4.17
2023-01-29T21:20:04.083Z,3.93
2023-01-29T21:25:03.372Z,3.45
2023-01-29T21:30:01.219Z,3.37
2023-01-29T21:34:59.013Z,2.95
2023-01-29T21:39:56.794Z,3.03
2023-01-29T21:44:55.964Z,2.58
2023-01-29T21:49:53.817Z,2.51
2023-01-29T21:54:51.633Z,2.70
2023-01-29T21:59:52.919Z,2.53
2023-01-29T22:05:05.317Z,2.58
2023-01-29T22:10:14.201Z,2.33
2023-01-29T22:15:12.890Z,2.14
2023-01-29T22:20:13.590Z,2.04
2023-01-29T22:25:11.795Z,2.15
2023-01-29T22:30:10.438Z,1.95
2023-01-29T22:35:08.668Z,1.94
2023-01-29T22:40:08.744Z,2.11
2023-01-29T22:45:06.998Z,2.40
2023-01-29T22:50:05.502Z,2.34
2023-01-29T22:55:03.314Z,2.34
2023-01-29T23:00:02.502Z,2.42
2023-01-29T23:05:00.338Z,1.69
2023-01-29T23:09:58.195Z,2.04
2023-01-29T23:14:56.081Z,1.54
2023-01-29T23:19:55.378Z,1.33
2023-01-29T23:24:53.184Z,1.16
2023-01-29T23:29:51.022Z,1.09
2023-01-29T23:34:49.006Z,0.65
2023-01-29T23:39:48.431Z,0.61
2023-01-29T23:44:46.237Z,0.74
2023-01-29T23:49:44.027Z,0.88
2023-01-29T23:54:41.871Z,0.93
2023-01-29T23:59:41.079Z,1.28
